createdAt,value
2018-12-29T00:01:34.598Z,83.75
2018-12-29T00:04:06.248Z,79.75
2018-12-29T00:06:37.725Z,73.50
2018-12-29T00:09:09.290Z,81.75
2018-12-29T00:11:40.622Z,79.50
2018-12-29T00:14:12.507Z,79.50
2018-12-29T00:16:44.305Z,84.00
2018-12-29T00:19:15.816Z,79.00
2018-12-29T00:21:47.075Z,80.75
2018-12-29T00:24:19.002Z,72.25
2018-12-29T00:26:50.514Z,83.50
2018-12-29T00:29:22.539Z,83.00
2018-12-29T00:31:54.086Z,83.00
2018-12-29T00:34:25.763Z,82.50
2018-12-29T00:36:57.134Z,76.75
2018-12-29T00:39:29.035Z,70.25
2018-12-29T00:42:00.234Z,77.25
2018-12-29T00:44:31.660Z,77.25
2018-12-29T00:47:02.991Z,86.25
2018-12-29T00:49:34.358Z,85.50
2018-12-29T00:52:06.626Z,82.00
2018-12-29T00:54:38.240Z,87.75
2018-12-29T00:57:09.543Z,81.25
2018-12-29T00:59:41.661Z,88.50
2018-12-29T01:02:12.866Z,74.50
2018-12-29T01:04:44.567Z,85.25
2018-12-29T01:07:15.719Z,93.00
2018-12-29T01:09:47.297Z,91.75
2018-12-29T01:12:18.492Z,86.00
2018-12-29T01:14:49.739Z,96.00
2018-12-29T01:17:21.595Z,94.00
2018-12-29T01:19:53.241Z,103.50
2018-12-29T01:22:24.671Z,101.50
2018-12-29T01:24:56.399Z,105.50
2018-12-29T01:27:27.558Z,106.25
2018-12-29T01:30:00.299Z,111.25
2018-12-29T01:32:32.807Z,113.50
2018-12-29T01:35:04.608Z,113.75
2018-12-29T01:37:35.775Z,115.25
2018-12-29T01:40:07.505Z,118.00
2018-12-29T01:42:39.062Z,120.50
2018-12-29T01:45:17.138Z,123.25
2018-12-29T01:47:43.661Z,133.75
2018-12-29T01:50:14.965Z,115.25
2018-12-29T01:52:46.321Z,127.75
2018-12-29T01:55:17.781Z,139.00
2018-12-29T01:57:49.017Z,137.25
2018-12-29T02:00:21.268Z,136.50
2018-12-29T02:02:52.586Z,142.50
2018-12-29T02:05:23.931Z,135.25
2018-12-29T02:07:55.047Z,147.00
2018-12-29T02:10:26.571Z,137.25
2018-12-29T02:12:57.684Z,138.00
2018-12-29T02:15:29.841Z,144.50
2018-12-29T02:18:01.630Z,157.75
2018-12-29T02:20:33.225Z,147.75
2018-12-29T02:23:04.276Z,172.00
2018-12-29T02:25:36.061Z,181.00
2018-12-29T02:28:07.660Z,178.50
2018-12-29T02:30:39.985Z,170.50
2018-12-29T02:33:11.448Z,208.50
2018-12-29T02:35:42.935Z,191.00
2018-12-29T02:38:13.958Z,214.75
2018-12-29T02:40:45.296Z,234.20
2018-12-29T02:43:16.464Z,234.80
2018-12-29T02:45:47.806Z,163.50
2018-12-29T02:48:19.224Z,182.25
2018-12-29T02:50:50.788Z,190.25
2018-12-29T02:53:22.055Z,239.00
2018-12-29T02:55:53.506Z,247.00
2018-12-29T02:58:25.706Z,232.20
2018-12-29T03:00:58.092Z,240.80
2018-12-29T03:03:29.673Z,227.80
2018-12-29T03:06:01.605Z,237.80
2018-12-29T03:08:37.377Z,215.40
2018-12-29T03:11:08.986Z,221.60
2018-12-29T03:13:40.529Z,223.00
2018-12-29T03:16:12.093Z,219.80
2018-12-29T03:18:45.106Z,222.20
2018-12-29T03:21:16.491Z,221.00
2018-12-29T03:23:47.715Z,224.40
2018-12-29T03:26:19.310Z,223.75
2018-12-29T03:28:51.010Z,213.50
2018-12-29T03:31:22.862Z,205.75
2018-12-29T03:33:54.271Z,209.50
2018-12-29T03:36:25.710Z,198.75
2018-12-29T03:38:56.887Z,195.75
2018-12-29T03:41:28.755Z,186.75
2018-12-29T03:44:00.310Z,198.75
2018-12-29T03:46:32.102Z,187.50
2018-12-29T03:49:03.662Z,178.75
2018-12-29T03:51:35.774Z,173.75
2018-12-29T03:54:07.175Z,169.50
2018-12-29T03:56:42.034Z,156.25
2018-12-29T03:59:13.535Z,155.25
2018-12-29T04:01:45.430Z,147.00
2018-12-29T04:04:16.857Z,135.75
2018-12-29T04:06:48.529Z,132.75
2018-12-29T04:09:36.243Z,126.75
2018-12-29T04:12:22.206Z,120.75
2018-12-29T04:14:53.804Z,124.75
2018-12-29T04:17:25.390Z,130.00
2018-12-29T04:19:57.042Z,120.00
2018-12-29T04:22:28.701Z,124.50
2018-12-29T04:25:00.384Z,121.75
2018-12-29T04:27:32.070Z,124.25
2018-12-29T04:30:03.421Z,121.50
2018-12-29T04:32:35.529Z,117.50
2018-12-29T04:35:07.183Z,117.25
2018-12-29T04:37:38.804Z,109.75
2018-12-29T04:40:10.025Z,112.75
2018-12-29T04:42:41.510Z,119.75
2018-12-29T04:45:13.001Z,124.00
2018-12-29T04:47:44.371Z,120.00
2018-12-29T04:50:15.782Z,112.75
2018-12-29T04:52:47.345Z,109.75
2018-12-29T04:55:18.546Z,111.25
2018-12-29T04:57:49.983Z,112.25
2018-12-29T05:00:21.446Z,106.25
2018-12-29T05:02:53.615Z,99.25
2018-12-29T05:05:25.224Z,94.00
2018-12-29T05:07:56.797Z,99.75
2018-12-29T05:10:28.061Z,96.00
2018-12-29T05:12:59.510Z,99.80
2018-12-29T05:15:30.839Z,90.60
2018-12-29T05:18:02.692Z,90.80
2018-12-29T05:20:34.576Z,94.20
2018-12-29T05:23:06.340Z,89.40
2018-12-29T05:25:37.586Z,81.40
2018-12-29T05:28:09.247Z,83.80
2018-12-29T05:30:40.733Z,78.60
2018-12-29T05:33:12.522Z,75.40
2018-12-29T05:35:43.942Z,72.60
2018-12-29T05:38:15.788Z,76.40
2018-12-29T05:40:47.184Z,69.60
2018-12-29T05:43:18.658Z,54.00
2018-12-29T05:45:50.225Z,52.20
2018-12-29T05:48:22.065Z,67.80
2018-12-29T05:50:53.275Z,64.60
2018-12-29T05:53:24.892Z,63.00
2018-12-29T05:55:56.214Z,63.80
2018-12-29T05:58:27.982Z,61.80
2018-12-29T06:00:59.508Z,51.00
2018-12-29T06:03:31.368Z,57.60
2018-12-29T06:06:05.236Z,54.40
2018-12-29T06:08:37.671Z,51.80
2018-12-29T06:11:09.077Z,56.20
2018-12-29T06:13:41.152Z,62.60
2018-12-29T06:16:12.223Z,64.20
2018-12-29T06:18:50.448Z,50.40
2018-12-29T06:21:24.399Z,54.80
2018-12-29T06:23:56.374Z,50.40
2018-12-29T06:26:27.910Z,57.00
2018-12-29T06:28:59.444Z,52.20
2018-12-29T06:31:30.566Z,54.80
2018-12-29T06:34:02.505Z,51.00
2018-12-29T06:36:33.712Z,49.20
2018-12-29T06:39:11.303Z,45.80
2018-12-29T06:41:42.839Z,52.20
2018-12-29T06:44:14.209Z,51.00
2018-12-29T06:46:45.726Z,49.80
2018-12-29T06:49:17.479Z,47.60
2018-12-29T06:51:49.098Z,50.20
2018-12-29T06:54:21.792Z,49.20
2018-12-29T06:56:56.266Z,51.00
2018-12-29T06:59:27.795Z,49.00
2018-12-29T07:01:59.023Z,51.40
2018-12-29T07:04:34.155Z,49.00
2018-12-29T07:07:12.587Z,46.40
2018-12-29T07:09:44.822Z,48.00
2018-12-29T07:12:21.181Z,48.00
2018-12-29T07:14:57.630Z,46.20
2018-12-29T07:17:30.369Z,49.40
2018-12-29T07:20:01.727Z,50.60
2018-12-29T07:22:34.473Z,48.20
2018-12-29T07:25:07.251Z,49.00
2018-12-29T07:27:38.448Z,48.20
2018-12-29T07:30:11.581Z,50.00
2018-12-29T07:32:43.176Z,43.20
2018-12-29T07:35:16.918Z,48.40
2018-12-29T07:37:48.712Z,47.00
2018-12-29T07:40:20.171Z,44.60
2018-12-29T07:42:51.519Z,47.80
2018-12-29T07:45:23.014Z,47.00
2018-12-29T07:47:54.250Z,53.80
2018-12-29T07:50:25.536Z,48.60
2018-12-29T07:52:57.129Z,48.80
2018-12-29T07:55:29.346Z,51.00
2018-12-29T07:58:00.743Z,48.80
2018-12-29T08:00:31.887Z,48.60
2018-12-29T08:03:03.318Z,46.20
2018-12-29T08:05:35.021Z,44.80
2018-12-29T08:08:06.221Z,45.60
2018-12-29T08:10:38.822Z,45.20
2018-12-29T08:13:10.672Z,45.40
2018-12-29T08:15:42.192Z,46.60
2018-12-29T08:18:14.637Z,47.40
2018-12-29T08:20:46.430Z,46.60
2018-12-29T08:23:17.560Z,48.00
2018-12-29T08:25:49.262Z,44.00
2018-12-29T08:28:23.598Z,48.00
2018-12-29T08:30:55.424Z,45.80
2018-12-29T08:33:26.896Z,45.80
2018-12-29T08:36:04.993Z,43.00
2018-12-29T08:38:37.451Z,45.40
2018-12-29T08:41:09.021Z,40.00
2018-12-29T08:43:40.249Z,46.20
2018-12-29T08:46:11.938Z,44.00
2018-12-29T08:48:44.667Z,47.20
2018-12-29T08:51:15.733Z,98.60
2018-12-29T08:53:47.756Z,66.00
2018-12-29T08:56:19.149Z,92.40
2018-12-29T08:58:50.372Z,83.20
2018-12-29T09:01:21.528Z,52.80
2018-12-29T09:03:52.871Z,78.20
2018-12-29T09:06:24.516Z,78.60
2018-12-29T09:08:55.958Z,53.20
2018-12-29T09:14:46.306Z,52.20
2018-12-29T09:17:19.131Z,44.60
2018-12-29T09:20:08.542Z,45.80
2018-12-29T09:22:41.836Z,43.80
2018-12-29T09:25:13.254Z,46.00
2018-12-29T09:27:45.321Z,39.60
2018-12-29T09:30:17.032Z,45.60
2018-12-29T09:32:48.237Z,45.00
2018-12-29T09:35:19.415Z,44.60
2018-12-29T09:37:51.463Z,43.20
2018-12-29T09:40:23.174Z,42.00
2018-12-29T09:42:55.962Z,45.20
2018-12-29T09:45:27.914Z,46.40
2018-12-29T09:47:59.636Z,44.20
2018-12-29T09:50:32.177Z,44.20
2018-12-29T09:53:03.583Z,46.00
2018-12-29T09:55:35.178Z,47.40
2018-12-29T09:58:06.402Z,48.00
2018-12-29T10:00:37.867Z,43.60
2018-12-29T10:03:09.387Z,46.40
2018-12-29T10:05:43.031Z,46.00
2018-12-29T10:08:16.068Z,47.20
2018-12-29T10:10:48.527Z,44.80
2018-12-29T10:13:21.970Z,47.60
2018-12-29T10:15:53.448Z,47.20
2018-12-29T10:18:24.971Z,47.00
2018-12-29T10:20:56.262Z,48.20
2018-12-29T10:23:27.814Z,47.60
2018-12-29T10:25:59.034Z,47.80
2018-12-29T10:28:30.216Z,47.80
2018-12-29T10:31:01.746Z,48.40
2018-12-29T10:33:32.924Z,49.80
2018-12-29T10:36:04.211Z,49.20
2018-12-29T10:38:37.021Z,48.00
2018-12-29T10:41:08.509Z,45.60
2018-12-29T10:43:39.777Z,44.80
2018-12-29T10:46:11.156Z,47.40
2018-12-29T10:48:42.768Z,38.20
2018-12-29T10:51:14.022Z,46.20
2018-12-29T10:53:45.601Z,47.00
2018-12-29T10:56:16.830Z,47.00
2018-12-29T10:58:48.378Z,45.20
2018-12-29T11:01:20.029Z,47.60
2018-12-29T11:03:51.225Z,46.00
2018-12-29T11:06:22.541Z,46.80
2018-12-29T11:08:54.588Z,45.20
2018-12-29T11:11:26.344Z,47.00
2018-12-29T11:13:57.725Z,45.20
2018-12-29T11:16:31.219Z,47.40
2018-12-29T11:19:02.645Z,45.60
2018-12-29T11:21:33.793Z,46.20
2018-12-29T11:24:05.369Z,45.60
2018-12-29T11:26:36.731Z,45.60
2018-12-29T11:29:08.025Z,46.00
2018-12-29T11:31:39.687Z,46.60
2018-12-29T11:34:11.371Z,45.40
2018-12-29T11:36:42.772Z,46.20
2018-12-29T11:39:14.615Z,46.20
2018-12-29T11:41:45.917Z,44.00
2018-12-29T11:44:17.588Z,45.60
2018-12-29T11:46:49.338Z,45.60
2018-12-29T11:49:20.930Z,46.00
2018-12-29T11:51:52.960Z,47.40
2018-12-29T11:54:25.292Z,48.20
2018-12-29T11:56:57.256Z,47.00
2018-12-29T11:59:28.653Z,46.40
2018-12-29T12:02:00.083Z,45.20
2018-12-29T12:04:32.162Z,47.60
2018-12-29T12:07:03.745Z,44.00
2018-12-29T12:09:36.020Z,46.60
2018-12-29T12:12:07.442Z,49.20
2018-12-29T12:14:39.117Z,49.20
2018-12-29T12:17:10.868Z,53.20
2018-12-29T12:19:42.368Z,60.00
2018-12-29T12:22:13.900Z,53.60
2018-12-29T12:24:45.377Z,65.60
2018-12-29T12:27:17.068Z,69.00
2018-12-29T12:29:49.018Z,68.80
2018-12-29T12:32:21.124Z,68.40
2018-12-29T12:34:53.360Z,87.20
2018-12-29T12:37:24.679Z,91.00
2018-12-29T12:39:56.849Z,82.40
2018-12-29T12:42:28.597Z,88.80
2018-12-29T12:45:00.223Z,83.80
2018-12-29T12:47:31.784Z,84.80
2018-12-29T12:50:03.553Z,90.40
2018-12-29T12:52:35.308Z,89.80
2018-12-29T12:55:06.821Z,91.40
2018-12-29T12:57:38.186Z,86.60
2018-12-29T13:00:10.357Z,92.60
2018-12-29T13:02:42.875Z,90.80
2018-12-29T13:05:14.228Z,94.60
2018-12-29T13:07:45.592Z,101.25
2018-12-29T13:10:16.972Z,103.50
2018-12-29T13:12:48.600Z,109.00
2018-12-29T13:15:21.747Z,121.00
2018-12-29T13:17:53.410Z,133.50
2018-12-29T13:20:25.141Z,143.75
2018-12-29T13:22:57.257Z,130.75
2018-12-29T13:25:29.150Z,154.25
2018-12-29T13:28:01.361Z,158.25
2018-12-29T13:30:32.837Z,153.50
2018-12-29T13:33:04.918Z,162.25
2018-12-29T13:35:36.477Z,164.75
2018-12-29T13:38:08.184Z,185.75
2018-12-29T13:40:41.069Z,193.00
2018-12-29T13:43:12.646Z,199.75
2018-12-29T13:45:44.339Z,209.50
2018-12-29T13:48:20.506Z,208.50
2018-12-29T13:50:49.374Z,211.25
2018-12-29T13:53:20.950Z,223.80
2018-12-29T13:55:52.273Z,224.80
2018-12-29T13:58:23.861Z,217.20
2018-12-29T14:00:55.774Z,225.60
2018-12-29T14:03:27.661Z,226.20
2018-12-29T14:05:59.304Z,229.60
2018-12-29T14:08:31.256Z,218.20
2018-12-29T14:11:03.314Z,214.00
2018-12-29T14:13:35.130Z,219.60
2018-12-29T14:16:07.102Z,230.00
2018-12-29T14:18:39.510Z,226.20
2018-12-29T14:21:11.845Z,230.00
2018-12-29T14:23:44.491Z,232.00
2018-12-29T14:26:16.074Z,226.80
2018-12-29T14:28:47.809Z,239.00
2018-12-29T14:31:19.459Z,248.80
2018-12-29T14:33:51.047Z,252.60
2018-12-29T14:36:23.133Z,243.60
2018-12-29T14:38:54.363Z,243.60
2018-12-29T14:41:26.412Z,224.75
2018-12-29T14:43:57.706Z,248.40
2018-12-29T14:46:29.418Z,252.60
2018-12-29T14:49:00.992Z,243.20
2018-12-29T14:51:32.461Z,235.80
2018-12-29T14:54:03.728Z,257.80
2018-12-29T14:56:35.306Z,265.80
2018-12-29T14:59:07.160Z,271.67
2018-12-29T15:01:38.844Z,263.20
2018-12-29T15:04:10.061Z,270.60
2018-12-29T15:06:41.575Z,268.80
2018-12-29T15:09:12.927Z,269.00
2018-12-29T15:11:44.754Z,272.60
2018-12-29T15:14:17.149Z,273.17
2018-12-29T15:16:49.495Z,275.33
2018-12-29T15:19:22.925Z,279.00
2018-12-29T15:21:54.477Z,269.00
2018-12-29T15:24:26.261Z,270.80
2018-12-29T15:26:57.728Z,271.40
2018-12-29T15:29:29.206Z,269.20
2018-12-29T15:32:00.648Z,276.80
2018-12-29T15:34:32.610Z,300.40
2018-12-29T15:37:04.059Z,293.00
2018-12-29T15:39:35.612Z,273.80
2018-12-29T15:42:07.501Z,290.00
2018-12-29T15:44:38.720Z,281.20
2018-12-29T15:47:10.440Z,276.50
2018-12-29T15:49:41.968Z,277.50
2018-12-29T15:52:13.445Z,303.80
2018-12-29T15:54:45.369Z,306.83
2018-12-29T15:57:16.862Z,278.20
2018-12-29T15:59:48.862Z,264.80
2018-12-29T16:02:20.366Z,232.40
2018-12-29T16:04:53.865Z,249.60
2018-12-29T16:07:26.151Z,229.40
2018-12-29T16:09:57.481Z,221.60
2018-12-29T16:12:29.194Z,221.00
2018-12-29T16:15:00.613Z,213.20
2018-12-29T16:17:32.367Z,232.00
2018-12-29T16:20:03.908Z,223.80
2018-12-29T16:22:35.223Z,222.80
2018-12-29T16:25:06.803Z,214.40
2018-12-29T16:27:38.552Z,221.80
2018-12-29T16:30:10.482Z,229.40
2018-12-29T16:32:42.373Z,222.80
2018-12-29T16:35:14.261Z,223.60
2018-12-29T16:37:45.744Z,217.00
2018-12-29T16:40:16.969Z,215.00
2018-12-29T16:42:48.977Z,208.00
2018-12-29T16:45:20.409Z,210.75
2018-12-29T16:47:51.742Z,203.25
2018-12-29T16:50:23.156Z,251.40
2018-12-29T16:52:54.580Z,287.00
2018-12-29T16:55:25.899Z,249.20
2018-12-29T16:57:57.484Z,226.60
2018-12-29T17:00:29.344Z,237.60
2018-12-29T17:03:01.182Z,260.00
2018-12-29T17:05:32.716Z,238.80
2018-12-29T17:08:04.481Z,228.20
2018-12-29T17:10:36.164Z,247.00
2018-12-29T17:13:08.141Z,233.00
2018-12-29T17:15:39.658Z,241.50
2018-12-29T17:18:11.470Z,237.75
2018-12-29T17:20:43.194Z,230.40
2018-12-29T17:23:14.655Z,239.60
2018-12-29T17:25:46.182Z,237.20
2018-12-29T17:28:17.580Z,247.80
2018-12-29T17:30:49.107Z,253.60
2018-12-29T17:33:20.467Z,245.80
2018-12-29T17:35:52.784Z,254.40
2018-12-29T17:38:24.590Z,247.00
2018-12-29T17:40:56.356Z,241.60
2018-12-29T17:43:28.492Z,247.40
2018-12-29T17:46:00.087Z,237.60
2018-12-29T17:48:31.474Z,238.00
2018-12-29T17:51:03.159Z,243.20
2018-12-29T17:53:34.843Z,240.20
2018-12-29T17:56:06.411Z,259.40
2018-12-29T17:58:37.999Z,245.60
2018-12-29T18:01:09.662Z,254.20
2018-12-29T18:03:40.971Z,247.20
2018-12-29T18:06:12.452Z,241.60
2018-12-29T18:08:43.615Z,259.00
2018-12-29T18:11:14.881Z,242.40
2018-12-29T18:13:46.991Z,247.60
2018-12-29T18:16:18.575Z,225.80
2018-12-29T18:18:50.224Z,248.40
2018-12-29T18:21:21.468Z,253.00
2018-12-29T18:23:53.064Z,254.00
2018-12-29T18:26:24.385Z,244.60
2018-12-29T18:28:56.074Z,251.20
2018-12-29T18:31:27.341Z,252.20
2018-12-29T18:33:58.775Z,252.20
2018-12-29T18:36:30.573Z,252.00
2018-12-29T18:39:02.944Z,251.60
2018-12-29T18:41:34.916Z,250.40
2018-12-29T18:44:07.507Z,251.00
2018-12-29T18:46:39.299Z,236.60
2018-12-29T18:49:10.694Z,249.80
2018-12-29T18:51:42.428Z,243.60
2018-12-29T18:54:13.906Z,255.80
2018-12-29T18:56:45.805Z,249.80
2018-12-29T18:59:18.005Z,255.40
2018-12-29T19:01:57.370Z,253.20
2018-12-29T19:04:22.756Z,246.20
2018-12-29T19:06:54.439Z,249.20
2018-12-29T19:09:25.785Z,242.00
2018-12-29T19:11:57.335Z,252.80
2018-12-29T19:14:29.165Z,243.60
2018-12-29T19:17:00.615Z,263.20
2018-12-29T19:19:32.319Z,243.80
2018-12-29T19:22:03.591Z,253.00
2018-12-29T19:24:34.915Z,249.20
2018-12-29T19:27:06.515Z,238.00
2018-12-29T19:29:38.160Z,234.60
2018-12-29T19:32:09.939Z,233.80
2018-12-29T19:34:41.900Z,236.80
2018-12-29T19:37:13.773Z,252.80
2018-12-29T19:39:45.747Z,238.20
2018-12-29T19:42:17.108Z,251.20
2018-12-29T19:44:49.026Z,233.80
2018-12-29T19:47:20.411Z,223.50
2018-12-29T19:49:53.788Z,235.80
2018-12-29T19:52:25.549Z,241.20
2018-12-29T19:54:56.876Z,213.75
2018-12-29T19:57:28.978Z,230.80
2018-12-29T20:00:00.397Z,229.75
2018-12-29T20:02:32.165Z,230.00
2018-12-29T20:05:03.904Z,227.20
2018-12-29T20:07:35.491Z,238.40
2018-12-29T20:10:07.248Z,227.40
2018-12-29T20:12:39.725Z,232.00
2018-12-29T20:15:11.449Z,227.60
2018-12-29T20:17:43.029Z,214.40
2018-12-29T20:20:14.398Z,223.60
2018-12-29T20:22:45.886Z,216.80
2018-12-29T20:25:17.552Z,215.20
2018-12-29T20:27:49.094Z,218.40
2018-12-29T20:30:20.588Z,209.20
2018-12-29T20:32:58.991Z,203.00
2018-12-29T20:35:24.928Z,198.00
2018-12-29T20:37:56.877Z,202.25
2018-12-29T20:40:28.979Z,178.50
2018-12-29T20:43:00.373Z,186.00
2018-12-29T20:45:32.060Z,182.75
2018-12-29T20:48:03.603Z,194.00
2018-12-29T20:50:34.944Z,192.75
2018-12-29T20:53:06.514Z,191.50
2018-12-29T20:55:37.884Z,189.75
2018-12-29T20:58:09.179Z,198.00
2018-12-29T21:00:40.722Z,171.25
2018-12-29T21:03:12.468Z,187.50
2018-12-29T21:05:43.805Z,194.25
2018-12-29T21:08:15.315Z,178.00
2018-12-29T21:10:46.522Z,182.50
2018-12-29T21:13:18.045Z,181.25
2018-12-29T21:15:49.835Z,174.00
2018-12-29T21:18:21.484Z,181.25
2018-12-29T21:20:52.724Z,183.25
2018-12-29T21:23:24.551Z,173.75
2018-12-29T21:25:55.803Z,169.25
2018-12-29T21:28:27.456Z,169.50
2018-12-29T21:30:59.020Z,184.25
2018-12-29T21:33:30.778Z,172.75
2018-12-29T21:36:02.043Z,166.50
2018-12-29T21:38:33.448Z,169.50
2018-12-29T21:41:05.449Z,176.50
2018-12-29T21:43:37.014Z,162.25
2018-12-29T21:46:09.014Z,170.25
2018-12-29T21:48:40.407Z,174.25
2018-12-29T21:51:11.751Z,169.50
2018-12-29T21:53:42.992Z,174.50
2018-12-29T21:56:14.689Z,181.50
2018-12-29T21:58:46.046Z,169.00
2018-12-29T22:01:17.526Z,167.00
2018-12-29T22:03:48.880Z,158.50
2018-12-29T22:06:21.821Z,162.75
2018-12-29T22:08:53.332Z,156.75
2018-12-29T22:11:24.997Z,155.25
2018-12-29T22:13:56.659Z,146.25
2018-12-29T22:16:28.488Z,152.75
2018-12-29T22:19:00.072Z,153.25
2018-12-29T22:21:31.786Z,153.50
2018-12-29T22:24:03.288Z,161.75
2018-12-29T22:26:35.007Z,156.00
2018-12-29T22:29:06.467Z,163.25
2018-12-29T22:31:37.925Z,156.75
2018-12-29T22:34:10.196Z,148.00
2018-12-29T22:36:41.725Z,155.25
2018-12-29T22:39:13.530Z,146.25
2018-12-29T22:41:45.456Z,153.75
2018-12-29T22:44:17.280Z,157.00
2018-12-29T22:46:49.439Z,151.50
2018-12-29T22:49:21.017Z,155.25
2018-12-29T22:51:52.436Z,142.50
2018-12-29T22:54:24.039Z,151.75
2018-12-29T22:56:56.025Z,150.00
2018-12-29T22:59:27.339Z,144.75
2018-12-29T23:01:58.929Z,146.00
2018-12-29T23:04:30.663Z,138.75
2018-12-29T23:07:02.362Z,137.00
2018-12-29T23:09:33.794Z,134.25
2018-12-29T23:12:06.423Z,134.75
2018-12-29T23:14:37.987Z,135.75
2018-12-29T23:17:10.349Z,140.25
2018-12-29T23:19:42.014Z,140.75
2018-12-29T23:22:13.564Z,141.00
2018-12-29T23:24:45.331Z,149.50
2018-12-29T23:27:17.086Z,134.25
2018-12-29T23:29:48.505Z,132.00
2018-12-29T23:32:19.886Z,133.25
2018-12-29T23:34:51.142Z,137.75
2018-12-29T23:37:22.578Z,128.75
2018-12-29T23:39:54.502Z,133.75
2018-12-29T23:42:25.895Z,131.25
2018-12-29T23:44:57.319Z,138.75
2018-12-29T23:47:29.542Z,126.50
2018-12-29T23:50:00.866Z,132.75
2018-12-29T23:52:32.352Z,124.75
2018-12-29T23:55:03.754Z,126.00
2018-12-29T23:57:35.313Z,129.00
